Main page
METAR-TAF:

METAR-TAF

Airports :

Al-Ahsa International Airport

Al-Hasa, Saudi Arabia

latitude: 25-18N, longitude: 049-29E, elevation: 179 m

Current weather observation

The report was made 24 minutes ago, at 04:00 UTC
Calm wind
Temperature 11°C
Humidity 82%
Pressure 1021 hPa
Visibility: 3000 m
mist

METAR: OEAH 090400Z 00000KT 3000 BR NSC 11/08 Q1021 NOSIG

Time: 07:24 (04:24 UTC)

Forecast

The report was made 6 hours and 24 minutes ago, at 22:00 UTC
Forecast valid from 09 at 00 UTC to 10 at 06 UTC
Wind 3 kt from variable directions
Visibility: 8000 m
Temporary
from 09 at 00 UTC to 09 at 05 UTC
Visibility: 5000 m
mist
Becoming
from 09 at 04 UTC to 09 at 06 UTC
Wind 6 kt from the South

TAF: OEAH 082200Z 0900/1006 VRB03KT 8000 NSC TEMPO 0900/0905 5000 BR BECMG 0904/0906 18006KT

Weather observations and forecasts of more than 4000 airports (METAR and TAF reports).

The available stations are represented by yellow and red dots on the map.

Hover mouse over dot to see the name of the station.

Then click to see weather observations and forecasts.

To change the map : click on the green buttons with a black cross to zoom in, on the green button with a dash to zoom out, or on the green arrows for adjacent maps.


METAR-TAF: